createdAt,value
2023-01-12T00:00:41.259Z,1008.06
2023-01-12T00:01:41.233Z,1008.02
2023-01-12T00:02:41.254Z,1008.07
2023-01-12T00:03:41.208Z,1008.08
2023-01-12T00:04:41.234Z,1007.98
2023-01-12T00:05:41.183Z,1008.07
2023-01-12T00:06:41.174Z,1008.15
2023-01-12T00:07:41.157Z,1008.01
2023-01-12T00:08:41.171Z,1008.06
2023-01-12T00:09:41.141Z,1008.14
2023-01-12T00:10:41.147Z,1008.03
2023-01-12T00:11:41.117Z,1008.15
2023-01-12T00:12:41.103Z,1008.06
2023-01-12T00:13:41.097Z,1008.14
2023-01-12T00:14:41.088Z,1008.10
2023-01-12T00:15:41.184Z,1008.14
2023-01-12T00:16:41.175Z,1008.14
2023-01-12T00:17:41.091Z,1008.20
2023-01-12T00:18:41.038Z,1008.18
2023-01-12T00:19:41.059Z,1008.16
2023-01-12T00:20:41.026Z,1008.18
2023-01-12T00:21:41.005Z,1008.15
2023-01-12T00:22:41.002Z,1008.24
2023-01-12T00:23:40.983Z,1008.27
2023-01-12T00:24:40.996Z,1008.22
2023-01-12T00:25:40.984Z,1008.19
2023-01-12T00:26:40.960Z,1008.22
2023-01-12T00:27:40.941Z,1008.21
2023-01-12T00:28:40.941Z,1008.21
2023-01-12T00:29:40.939Z,1008.23
2023-01-12T00:30:40.920Z,1008.22
2023-01-12T00:31:40.924Z,1008.16
2023-01-12T00:32:40.891Z,1008.13
2023-01-12T00:33:40.882Z,1008.02
2023-01-12T00:34:40.892Z,1008.05
2023-01-12T00:35:40.855Z,1008.11
2023-01-12T00:36:40.854Z,1008.13
2023-01-12T00:37:40.831Z,1008.14
2023-01-12T00:38:40.861Z,1008.13
2023-01-12T00:39:45.897Z,1008.04
2023-01-12T00:40:41.807Z,1008.08
2023-01-12T00:41:40.793Z,1008.08
2023-01-12T00:42:40.798Z,1008.05
2023-01-12T00:43:40.799Z,1007.96
2023-01-12T00:44:40.764Z,1008.02
2023-01-12T00:45:40.750Z,1007.94
2023-01-12T00:46:40.746Z,1007.91
2023-01-12T00:47:40.761Z,1007.99
2023-01-12T00:48:40.754Z,1007.93
2023-01-12T00:49:40.705Z,1007.92
2023-01-12T00:50:40.696Z,1007.98
2023-01-12T00:51:40.699Z,1007.93
2023-01-12T00:52:40.682Z,1007.96
2023-01-12T00:53:40.683Z,1007.96
2023-01-12T00:54:40.658Z,1007.87
2023-01-12T00:55:40.663Z,1007.88
2023-01-12T00:56:40.638Z,1007.89
2023-01-12T00:57:40.651Z,1007.93
2023-01-12T00:58:40.615Z,1007.91
2023-01-12T00:59:40.595Z,1007.90
2023-01-12T01:00:40.594Z,1007.82
2023-01-12T01:01:40.805Z,1007.86
2023-01-12T01:02:40.638Z,1007.89
2023-01-12T01:03:40.598Z,1007.87
2023-01-12T01:04:40.543Z,1007.80
2023-01-12T01:05:40.539Z,1007.84
2023-01-12T01:06:40.531Z,1007.75
2023-01-12T01:07:40.543Z,1007.77
2023-01-12T01:08:40.524Z,1007.72
2023-01-12T01:09:40.500Z,1007.73
2023-01-12T01:10:40.479Z,1007.75
2023-01-12T01:11:40.470Z,1007.76
2023-01-12T01:12:40.487Z,1007.73
2023-01-12T01:13:40.445Z,1007.71
2023-01-12T01:14:40.476Z,1007.75
2023-01-12T01:15:40.455Z,1007.80
2023-01-12T01:16:40.413Z,1007.83
2023-01-12T01:17:40.436Z,1007.89
2023-01-12T01:18:40.401Z,1007.87
2023-01-12T01:19:40.435Z,1007.90
2023-01-12T01:20:40.376Z,1007.94
2023-01-12T01:21:40.364Z,1007.83
2023-01-12T01:22:40.355Z,1007.85
2023-01-12T01:23:40.359Z,1007.93
2023-01-12T01:24:40.364Z,1007.82
2023-01-12T01:25:40.315Z,1007.86
2023-01-12T01:26:40.321Z,1007.85
2023-01-12T01:27:40.306Z,1007.91
2023-01-12T01:28:40.298Z,1007.92
2023-01-12T01:29:40.293Z,1007.92
2023-01-12T01:30:40.263Z,1007.77
2023-01-12T01:31:40.259Z,1007.86
2023-01-12T01:32:40.243Z,1007.82
2023-01-12T01:33:40.237Z,1007.81
2023-01-12T01:34:40.244Z,1007.69
2023-01-12T01:35:40.229Z,1007.72
2023-01-12T01:36:40.201Z,1007.62
2023-01-12T01:37:40.187Z,1007.59
2023-01-12T01:38:40.180Z,1007.62
2023-01-12T01:39:40.187Z,1007.59
2023-01-12T01:40:40.155Z,1007.54
2023-01-12T01:41:42.718Z,1007.56
2023-01-12T01:42:40.139Z,1007.52
2023-01-12T01:43:40.126Z,1007.50
2023-01-12T01:44:40.150Z,1007.45
2023-01-12T01:45:40.106Z,1007.49
2023-01-12T01:46:40.180Z,1007.45
2023-01-12T01:47:40.091Z,1007.45
2023-01-12T01:48:40.078Z,1007.44
2023-01-12T01:49:40.081Z,1007.53
2023-01-12T01:50:40.053Z,1007.45
2023-01-12T01:51:40.062Z,1007.46
2023-01-12T01:52:40.029Z,1007.49
2023-01-12T01:53:40.049Z,1007.47
2023-01-12T01:54:40.035Z,1007.50
2023-01-12T01:55:39.999Z,1007.43
2023-01-12T01:56:39.991Z,1007.47
2023-01-12T01:57:40.005Z,1007.45
2023-01-12T01:58:39.968Z,1007.48
2023-01-12T01:59:39.975Z,1007.54
2023-01-12T02:00:39.951Z,1007.55
2023-01-12T02:01:40.057Z,1007.49
2023-01-12T02:02:39.975Z,1007.48
2023-01-12T02:03:39.908Z,1007.45
2023-01-12T02:04:39.926Z,1007.39
2023-01-12T02:05:39.884Z,1007.51
2023-01-12T02:06:39.882Z,1007.43
2023-01-12T02:07:39.884Z,1007.42
2023-01-12T02:08:39.855Z,1007.40
2023-01-12T02:09:39.881Z,1007.42
2023-01-12T02:10:39.848Z,1007.40
2023-01-12T02:11:39.818Z,1007.33
2023-01-12T02:12:39.831Z,1007.33
2023-01-12T02:13:39.804Z,1007.32
2023-01-12T02:14:39.822Z,1007.31
2023-01-12T02:15:39.778Z,1007.33
2023-01-12T02:16:39.779Z,1007.43
2023-01-12T02:17:39.783Z,1007.18
2023-01-12T02:18:39.751Z,1007.22
2023-01-12T02:19:39.763Z,1007.18
2023-01-12T02:20:39.731Z,1007.17
2023-01-12T02:21:39.714Z,1007.20
2023-01-12T02:22:39.712Z,1007.21
2023-01-12T02:23:39.870Z,1007.18
2023-01-12T02:24:39.683Z,1007.20
2023-01-12T02:25:39.675Z,1007.19
2023-01-12T02:26:39.666Z,1007.14
2023-01-12T02:27:39.652Z,1007.21
2023-01-12T02:28:39.663Z,1007.12
2023-01-12T02:29:39.625Z,1007.04
2023-01-12T02:30:39.634Z,1007.14
2023-01-12T02:31:39.662Z,1007.12
2023-01-12T02:32:39.617Z,1007.08
2023-01-12T02:33:39.584Z,1007.15
2023-01-12T02:34:39.603Z,1007.14
2023-01-12T02:35:39.563Z,1007.19
2023-01-12T02:36:39.557Z,1007.05
2023-01-12T02:37:39.540Z,1007.12
2023-01-12T02:38:39.555Z,1007.13
2023-01-12T02:39:39.572Z,1007.12
2023-01-12T02:40:39.513Z,1007.09
2023-01-12T02:41:39.502Z,1007.03
2023-01-12T02:42:39.491Z,1007.09
2023-01-12T02:43:39.479Z,1007.08
2023-01-12T02:44:39.499Z,1007.01
2023-01-12T02:45:39.457Z,1007.02
2023-01-12T02:46:39.531Z,1006.90
2023-01-12T02:47:39.434Z,1007.02
2023-01-12T02:48:39.427Z,1006.95
2023-01-12T02:49:39.445Z,1006.93
2023-01-12T02:50:39.418Z,1006.90
2023-01-12T02:51:39.388Z,1006.86
2023-01-12T02:52:39.407Z,1006.80
2023-01-12T02:53:39.366Z,1006.88
2023-01-12T02:54:39.364Z,1006.84
2023-01-12T02:55:39.393Z,1006.81
2023-01-12T02:56:39.335Z,1006.85
2023-01-12T02:57:39.364Z,1006.82
2023-01-12T02:58:39.342Z,1006.83
2023-01-12T02:59:39.300Z,1006.85
2023-01-12T03:00:39.350Z,1006.91
2023-01-12T03:01:39.318Z,1006.87
2023-01-12T03:02:39.357Z,1006.80
2023-01-12T03:03:39.272Z,1006.92
2023-01-12T03:04:39.257Z,1006.92
2023-01-12T03:05:39.238Z,1006.85
2023-01-12T03:06:39.232Z,1006.87
2023-01-12T03:07:39.222Z,1006.80
2023-01-12T03:08:39.240Z,1006.86
2023-01-12T03:09:39.194Z,1006.77
2023-01-12T03:10:39.215Z,1006.92
2023-01-12T03:11:39.210Z,1006.84
2023-01-12T03:12:39.191Z,1006.77
2023-01-12T03:13:39.175Z,1006.79
2023-01-12T03:14:39.149Z,1006.82
2023-01-12T03:15:39.130Z,1006.67
2023-01-12T03:16:39.155Z,1006.73
2023-01-12T03:17:39.111Z,1006.77
2023-01-12T03:18:39.109Z,1006.67
2023-01-12T03:19:39.091Z,1006.75
2023-01-12T03:20:39.082Z,1006.65
2023-01-12T03:21:39.092Z,1006.78
2023-01-12T03:22:39.061Z,1006.73
2023-01-12T03:23:39.051Z,1006.61
2023-01-12T03:24:39.041Z,1006.68
2023-01-12T03:25:39.027Z,1006.62
2023-01-12T03:26:39.037Z,1006.68
2023-01-12T03:27:39.027Z,1006.62
2023-01-12T03:28:38.999Z,1006.74
2023-01-12T03:29:38.986Z,1006.67
2023-01-12T03:30:38.993Z,1006.66
2023-01-12T03:31:39.046Z,1006.69
2023-01-12T03:32:38.962Z,1006.59
2023-01-12T03:33:38.936Z,1006.61
2023-01-12T03:34:38.929Z,1006.68
2023-01-12T03:35:38.922Z,1006.62
2023-01-12T03:36:38.933Z,1006.63
2023-01-12T03:37:38.896Z,1006.66
2023-01-12T03:38:38.889Z,1006.54
2023-01-12T03:39:38.875Z,1006.55
2023-01-12T03:40:38.870Z,1006.65
2023-01-12T03:41:38.877Z,1006.75
2023-01-12T03:42:38.862Z,1006.68
2023-01-12T03:43:38.854Z,1006.66
2023-01-12T03:44:38.826Z,1006.71
2023-01-12T03:45:38.815Z,1006.69
2023-01-12T03:46:38.859Z,1006.66
2023-01-12T03:47:38.811Z,1006.65
2023-01-12T03:48:38.793Z,1006.68
2023-01-12T03:49:38.785Z,1006.65
2023-01-12T03:50:38.764Z,1006.65
2023-01-12T03:51:38.750Z,1006.68
2023-01-12T03:52:38.768Z,1006.63
2023-01-12T03:53:38.746Z,1006.73
2023-01-12T03:54:38.720Z,1006.79
2023-01-12T03:55:38.703Z,1006.71
2023-01-12T03:56:38.699Z,1006.64
2023-01-12T03:57:38.676Z,1006.68
2023-01-12T03:58:38.694Z,1006.73
2023-01-12T03:59:38.678Z,1006.68
2023-01-12T04:00:38.771Z,1006.66
2023-01-12T04:01:38.753Z,1006.70
2023-01-12T04:02:38.639Z,1006.63
2023-01-12T04:03:38.689Z,1006.65
2023-01-12T04:04:38.609Z,1006.65
2023-01-12T04:05:38.594Z,1006.60
2023-01-12T04:06:38.590Z,1006.63
2023-01-12T04:07:38.585Z,1006.58
2023-01-12T04:08:38.592Z,1006.56
2023-01-12T04:09:38.588Z,1006.52
2023-01-12T04:10:38.546Z,1006.51
2023-01-12T04:11:38.532Z,1006.59
2023-01-12T04:12:38.520Z,1006.49
2023-01-12T04:13:38.510Z,1006.49
2023-01-12T04:14:38.525Z,1006.48
2023-01-12T04:15:38.530Z,1006.48
2023-01-12T04:16:38.518Z,1006.49
2023-01-12T04:17:38.462Z,1006.43
2023-01-12T04:18:38.459Z,1006.48
2023-01-12T04:19:38.468Z,1006.47
2023-01-12T04:20:38.439Z,1006.40
2023-01-12T04:21:38.447Z,1006.44
2023-01-12T04:22:38.425Z,1006.42
2023-01-12T04:23:38.403Z,1006.37
2023-01-12T04:24:38.417Z,1006.29
2023-01-12T04:25:38.396Z,1006.34
2023-01-12T04:26:38.369Z,1006.19
2023-01-12T04:27:38.361Z,1006.26
2023-01-12T04:28:38.349Z,1006.24
2023-01-12T04:29:38.365Z,1006.29
2023-01-12T04:30:38.353Z,1006.36
2023-01-12T04:31:38.432Z,1006.29
2023-01-12T04:32:38.311Z,1006.21
2023-01-12T04:33:38.293Z,1006.29
2023-01-12T04:34:38.312Z,1006.23
2023-01-12T04:35:38.272Z,1006.16
2023-01-12T04:36:39.633Z,1006.22
2023-01-12T04:37:38.252Z,1006.29
2023-01-12T04:38:38.238Z,1006.26
2023-01-12T04:39:38.229Z,1006.27
2023-01-12T04:40:38.240Z,1006.21
2023-01-12T04:41:38.235Z,1006.19
2023-01-12T04:42:38.204Z,1006.16
2023-01-12T04:43:38.188Z,1006.16
2023-01-12T04:44:38.176Z,1006.20
2023-01-12T04:45:38.276Z,1006.15
2023-01-12T04:46:38.175Z,1006.07
2023-01-12T04:47:38.178Z,1006.15
2023-01-12T04:48:38.125Z,1006.15
2023-01-12T04:49:38.135Z,1006.14
2023-01-12T04:50:38.109Z,1006.12
2023-01-12T04:51:38.171Z,1006.21
2023-01-12T04:52:38.097Z,1006.19
2023-01-12T04:53:38.115Z,1006.16
2023-01-12T04:54:38.067Z,1006.13
2023-01-12T04:55:38.094Z,1006.04
2023-01-12T04:56:38.057Z,1006.01
2023-01-12T04:57:38.036Z,1006.02
2023-01-12T04:58:38.022Z,1005.95
2023-01-12T04:59:38.034Z,1006.02
2023-01-12T05:00:38.010Z,1006.06
2023-01-12T05:01:38.207Z,1006.00
2023-01-12T05:02:38.003Z,1006.02
2023-01-12T05:03:37.996Z,1005.99
2023-01-12T05:04:37.959Z,1006.04
2023-01-12T05:05:37.951Z,1006.01
2023-01-12T05:06:37.944Z,1006.02
2023-01-12T05:07:37.940Z,1006.03
2023-01-12T05:08:37.914Z,1006.01
2023-01-12T05:09:37.903Z,1005.97
2023-01-12T05:10:37.913Z,1005.96
2023-01-12T05:11:37.903Z,1005.97
2023-01-12T05:12:37.894Z,1006.00
2023-01-12T05:13:37.887Z,1005.90
2023-01-12T05:14:37.863Z,1005.96
2023-01-12T05:15:37.851Z,1005.92
2023-01-12T05:16:37.895Z,1005.93
2023-01-12T05:17:37.828Z,1005.88
2023-01-12T05:18:37.836Z,1005.90
2023-01-12T05:19:37.837Z,1005.88
2023-01-12T05:20:37.791Z,1005.80
2023-01-12T05:21:37.775Z,1005.85
2023-01-12T05:22:37.780Z,1005.93
2023-01-12T05:23:37.758Z,1005.91
2023-01-12T05:24:37.740Z,1005.91
2023-01-12T05:25:37.736Z,1005.84
2023-01-12T05:26:37.718Z,1005.89
2023-01-12T05:27:37.736Z,1005.92
2023-01-12T05:28:37.699Z,1005.93
2023-01-12T05:29:37.717Z,1005.92
2023-01-12T05:30:37.731Z,1005.89
2023-01-12T05:31:37.668Z,1005.87
2023-01-12T05:32:37.653Z,1005.80
2023-01-12T05:33:37.649Z,1005.79
2023-01-12T05:34:37.648Z,1005.84
2023-01-12T05:35:37.656Z,1005.92
2023-01-12T05:36:37.609Z,1005.86
2023-01-12T05:37:37.630Z,1005.83
2023-01-12T05:38:37.612Z,1005.85
2023-01-12T05:39:37.580Z,1005.77
2023-01-12T05:40:37.569Z,1005.77
2023-01-12T05:41:37.565Z,1005.71
2023-01-12T05:42:37.546Z,1005.82
2023-01-12T05:43:37.557Z,1005.75
2023-01-12T05:44:37.526Z,1005.78
2023-01-12T05:45:37.521Z,1005.77
2023-01-12T05:46:37.502Z,1005.73
2023-01-12T05:47:37.498Z,1005.78
2023-01-12T05:48:37.493Z,1005.68
2023-01-12T05:49:37.472Z,1005.72
2023-01-12T05:50:37.461Z,1005.75
2023-01-12T05:51:37.476Z,1005.68
2023-01-12T05:52:37.434Z,1005.76
2023-01-12T05:53:37.450Z,1005.69
2023-01-12T05:54:37.418Z,1005.80
2023-01-12T05:55:37.434Z,1005.79
2023-01-12T05:56:37.395Z,1005.74
2023-01-12T05:57:37.393Z,1005.79
2023-01-12T05:58:37.405Z,1005.70
2023-01-12T05:59:37.370Z,1005.66
2023-01-12T06:00:37.370Z,1005.79
2023-01-12T06:01:37.364Z,1005.67
2023-01-12T06:02:37.421Z,1005.75
2023-01-12T06:03:37.329Z,1005.66
2023-01-12T06:04:37.398Z,1005.73
2023-01-12T06:05:37.331Z,1005.71
2023-01-12T06:06:37.283Z,1005.68
2023-01-12T06:07:37.382Z,1005.68
2023-01-12T06:08:37.301Z,1005.57
2023-01-12T06:09:37.262Z,1005.63
2023-01-12T06:10:37.272Z,1005.70
2023-01-12T06:11:37.240Z,1005.75
2023-01-12T06:12:37.222Z,1005.69
2023-01-12T06:13:37.241Z,1005.68
2023-01-12T06:14:37.209Z,1005.69
2023-01-12T06:15:37.265Z,1005.67
2023-01-12T06:16:37.204Z,1005.67
2023-01-12T06:17:37.177Z,1005.72
2023-01-12T06:18:37.157Z,1005.71
2023-01-12T06:19:37.180Z,1005.63
2023-01-12T06:20:37.139Z,1005.70
2023-01-12T06:21:37.161Z,1005.63
2023-01-12T06:22:37.137Z,1005.63
2023-01-12T06:23:37.130Z,1005.65
2023-01-12T06:24:37.117Z,1005.63
2023-01-12T06:25:37.084Z,1005.59
2023-01-12T06:26:37.067Z,1005.61
2023-01-12T06:27:37.068Z,1005.55
2023-01-12T06:28:37.049Z,1005.61
2023-01-12T06:29:37.067Z,1005.70
2023-01-12T06:30:37.027Z,1005.62
2023-01-12T06:31:37.051Z,1005.67
2023-01-12T06:32:37.025Z,1005.72
2023-01-12T06:33:36.998Z,1005.68
2023-01-12T06:34:36.986Z,1005.70
2023-01-12T06:35:36.975Z,1005.68
2023-01-12T06:36:36.985Z,1005.67
2023-01-12T06:37:36.954Z,1005.66
2023-01-12T06:38:36.945Z,1005.70
2023-01-12T06:39:36.977Z,1005.71
2023-01-12T06:40:36.921Z,1005.59
2023-01-12T06:41:36.936Z,1005.61
2023-01-12T06:42:36.911Z,1005.53
2023-01-12T06:43:36.890Z,1005.56
2023-01-12T06:44:36.878Z,1005.62
2023-01-12T06:45:36.866Z,1005.50
2023-01-12T06:46:36.996Z,1005.50
2023-01-12T06:47:36.844Z,1005.54
2023-01-12T06:48:39.098Z,1005.45
2023-01-12T06:49:36.828Z,1005.48
2023-01-12T06:50:36.813Z,1005.45
2023-01-12T06:51:36.800Z,1005.49
2023-01-12T06:52:36.813Z,1005.47
2023-01-12T06:53:36.791Z,1005.40
2023-01-12T06:54:36.775Z,1005.44
2023-01-12T06:55:36.800Z,1005.49
2023-01-12T06:56:36.749Z,1005.45
2023-01-12T06:57:36.761Z,1005.39
2023-01-12T06:58:36.731Z,1005.44
2023-01-12T06:59:38.900Z,1005.46
2023-01-12T07:00:36.710Z,1005.42
2023-01-12T07:01:36.819Z,1005.40
2023-01-12T07:02:36.709Z,1005.46
2023-01-12T07:03:36.678Z,1005.46
2023-01-12T07:04:36.726Z,1005.41
2023-01-12T07:05:36.654Z,1005.46
2023-01-12T07:06:36.671Z,1005.44
2023-01-12T07:07:38.609Z,1005.39
2023-01-12T07:08:36.637Z,1005.41
2023-01-12T07:09:36.620Z,1005.40
2023-01-12T07:10:36.598Z,1005.41
2023-01-12T07:11:36.611Z,1005.40
2023-01-12T07:12:36.595Z,1005.39
2023-01-12T07:13:36.578Z,1005.45
2023-01-12T07:14:36.569Z,1005.39
2023-01-12T07:15:36.580Z,1005.40
2023-01-12T07:16:36.529Z,1005.37
2023-01-12T07:17:36.551Z,1005.40
2023-01-12T07:18:36.515Z,1005.35
2023-01-12T07:19:36.529Z,1005.34
2023-01-12T07:20:36.495Z,1005.30
2023-01-12T07:21:36.475Z,1005.34
2023-01-12T07:22:36.480Z,1005.30
2023-01-12T07:23:36.477Z,1005.32
2023-01-12T07:24:36.473Z,1005.25
2023-01-12T07:25:36.445Z,1005.33
2023-01-12T07:26:36.416Z,1005.26
2023-01-12T07:27:36.431Z,1005.29
2023-01-12T07:28:36.416Z,1005.24
2023-01-12T07:29:36.431Z,1005.25
2023-01-12T07:30:36.387Z,1005.17
2023-01-12T07:31:36.371Z,1005.28
2023-01-12T07:32:36.354Z,1005.25
2023-01-12T07:33:36.348Z,1005.24
2023-01-12T07:34:36.366Z,1005.13
2023-01-12T07:35:36.329Z,1005.19
2023-01-12T07:36:36.313Z,1005.16
2023-01-12T07:37:36.307Z,1005.09
2023-01-12T07:38:36.297Z,1005.11
2023-01-12T07:39:36.314Z,1005.15
2023-01-12T07:40:36.267Z,1005.18
2023-01-12T07:41:36.267Z,1005.17
2023-01-12T07:42:36.250Z,1005.07
2023-01-12T07:43:36.257Z,1005.10
2023-01-12T07:44:36.223Z,1005.10
2023-01-12T07:45:36.281Z,1005.05
2023-01-12T07:46:36.291Z,1005.08
2023-01-12T07:47:36.201Z,1005.01
2023-01-12T07:48:36.205Z,1005.03
2023-01-12T07:49:36.179Z,1005.03
2023-01-12T07:50:36.161Z,1005.02
2023-01-12T07:51:36.155Z,1004.98
2023-01-12T07:52:36.141Z,1004.99
2023-01-12T07:53:36.154Z,1004.94
2023-01-12T07:54:36.144Z,1004.91
2023-01-12T07:55:36.115Z,1004.94
2023-01-12T07:56:36.102Z,1004.94
2023-01-12T07:57:36.086Z,1004.90
2023-01-12T07:58:36.069Z,1004.85
2023-01-12T07:59:36.120Z,1004.88
2023-01-12T08:00:36.055Z,1004.93
2023-01-12T08:01:36.229Z,1004.85
2023-01-12T08:02:36.032Z,1004.91
2023-01-12T08:03:36.025Z,1004.86
2023-01-12T08:04:36.056Z,1004.80
2023-01-12T08:05:36.056Z,1004.91
2023-01-12T08:06:35.994Z,1004.86
2023-01-12T08:07:35.978Z,1004.91
2023-01-12T08:08:35.972Z,1004.83
2023-01-12T08:09:35.981Z,1004.77
2023-01-12T08:10:35.944Z,1004.79
2023-01-12T08:11:35.940Z,1004.76
2023-01-12T08:12:35.922Z,1004.80
2023-01-12T08:13:35.928Z,1004.75
2023-01-12T08:14:35.925Z,1004.74
2023-01-12T08:15:35.966Z,1004.72
2023-01-12T08:16:35.911Z,1004.74
2023-01-12T08:17:35.884Z,1004.71
2023-01-12T08:18:35.858Z,1004.73
2023-01-12T08:19:35.848Z,1004.71
2023-01-12T08:20:35.877Z,1004.72
2023-01-12T08:21:35.833Z,1004.75
2023-01-12T08:22:35.818Z,1004.77
2023-01-12T08:23:35.807Z,1004.66
2023-01-12T08:24:35.791Z,1004.66
2023-01-12T08:25:35.784Z,1004.73
2023-01-12T08:26:35.790Z,1004.73
2023-01-12T08:27:35.760Z,1004.66
2023-01-12T08:28:35.755Z,1004.71
2023-01-12T08:29:35.735Z,1004.68
2023-01-12T08:30:35.722Z,1004.65
2023-01-12T08:31:35.768Z,1004.66
2023-01-12T08:32:35.701Z,1004.67
2023-01-12T08:33:35.689Z,1004.67
2023-01-12T08:34:35.690Z,1004.65
2023-01-12T08:35:35.669Z,1004.64
2023-01-12T08:36:35.678Z,1004.64
2023-01-12T08:37:35.666Z,1004.61
2023-01-12T08:38:35.640Z,1004.62
2023-01-12T08:39:35.627Z,1004.61
2023-01-12T08:40:35.618Z,1004.62
2023-01-12T08:41:35.631Z,1004.64
2023-01-12T08:42:35.592Z,1004.68
2023-01-12T08:43:35.588Z,1004.61
2023-01-12T08:44:35.570Z,1004.59
2023-01-12T08:45:35.563Z,1004.58
2023-01-12T08:46:35.586Z,1004.49
2023-01-12T08:47:35.603Z,1004.57
2023-01-12T08:48:35.527Z,1004.54
2023-01-12T08:49:35.523Z,1004.49
2023-01-12T08:50:35.516Z,1004.46
2023-01-12T08:51:35.540Z,1004.50
2023-01-12T08:52:35.520Z,1004.53
2023-01-12T08:53:35.588Z,1004.50
2023-01-12T08:54:35.466Z,1004.39
2023-01-12T08:55:35.456Z,1004.40
2023-01-12T08:56:35.469Z,1004.33
2023-01-12T08:57:35.434Z,1004.42
2023-01-12T08:58:35.420Z,1004.35
2023-01-12T08:59:35.415Z,1004.37
2023-01-12T09:00:35.431Z,1004.36
2023-01-12T09:01:35.560Z,1004.32
2023-01-12T09:02:35.633Z,1004.38
2023-01-12T09:03:35.394Z,1004.36
2023-01-12T09:04:35.358Z,1004.43
2023-01-12T09:05:35.349Z,1004.30
2023-01-12T09:06:35.368Z,1004.29
2023-01-12T09:07:35.356Z,1004.32
2023-01-12T09:08:35.314Z,1004.24
2023-01-12T09:09:35.305Z,1004.31
2023-01-12T09:10:35.302Z,1004.29
2023-01-12T09:11:35.281Z,1004.25
2023-01-12T09:12:35.285Z,1004.23
2023-01-12T09:13:35.277Z,1004.28
2023-01-12T09:14:35.249Z,1004.25
2023-01-12T09:15:35.237Z,1004.21
2023-01-12T09:16:35.278Z,1004.12
2023-01-12T09:17:35.212Z,1004.13
2023-01-12T09:18:35.229Z,1004.13
2023-01-12T09:19:35.223Z,1004.22
2023-01-12T09:20:35.184Z,1004.16
2023-01-12T09:21:35.177Z,1004.19
2023-01-12T09:22:35.161Z,1004.11
2023-01-12T09:23:35.166Z,1004.06
2023-01-12T09:24:35.138Z,1004.13
2023-01-12T09:25:35.549Z,1004.00
2023-01-12T09:26:35.120Z,1003.99
2023-01-12T09:27:35.105Z,1004.12
2023-01-12T09:28:35.115Z,1003.94
2023-01-12T09:29:35.083Z,1004.06
2023-01-12T09:30:35.093Z,1003.92
2023-01-12T09:31:35.073Z,1004.10
2023-01-12T09:32:36.977Z,1004.05
2023-01-12T09:33:35.062Z,1004.02
2023-01-12T09:34:35.063Z,1003.91
2023-01-12T09:35:35.039Z,1003.89
2023-01-12T09:36:35.003Z,1003.93
2023-01-12T09:37:34.999Z,1003.93
2023-01-12T09:38:35.013Z,1003.93
2023-01-12T09:39:34.977Z,1003.94
2023-01-12T09:40:34.969Z,1003.81
2023-01-12T09:41:34.957Z,1003.92
2023-01-12T09:42:34.948Z,1003.95
2023-01-12T09:43:34.953Z,1003.92
2023-01-12T09:44:34.917Z,1003.96
2023-01-12T09:45:34.928Z,1003.99
2023-01-12T09:46:34.905Z,1003.83
2023-01-12T09:47:34.884Z,1003.74
2023-01-12T09:48:34.876Z,1003.74
2023-01-12T09:49:34.887Z,1003.72
2023-01-12T09:50:34.860Z,1003.81
2023-01-12T09:51:34.873Z,1003.71
2023-01-12T09:52:34.837Z,1003.73
2023-01-12T09:53:34.849Z,1003.79
2023-01-12T09:54:34.816Z,1003.64
2023-01-12T09:55:34.802Z,1003.63
2023-01-12T09:56:34.792Z,1003.69
2023-01-12T09:57:34.805Z,1003.69
2023-01-12T09:58:34.767Z,1003.70
2023-01-12T09:59:34.761Z,1003.63
2023-01-12T10:00:34.783Z,1003.59
2023-01-12T10:01:34.829Z,1003.59
2023-01-12T10:02:34.990Z,1003.65
2023-01-12T10:03:34.803Z,1003.72
2023-01-12T10:04:34.704Z,1003.60
2023-01-12T10:05:39.777Z,1003.61
2023-01-12T10:06:35.685Z,1003.69
2023-01-12T10:07:34.733Z,1003.63
2023-01-12T10:08:34.685Z,1003.61
2023-01-12T10:09:34.647Z,1003.50
2023-01-12T10:10:34.645Z,1003.55
2023-01-12T10:11:34.636Z,1003.53
2023-01-12T10:12:34.623Z,1003.49
2023-01-12T10:13:34.632Z,1003.55
2023-01-12T10:14:34.596Z,1003.54
2023-01-12T10:15:34.592Z,1003.40
2023-01-12T10:16:34.643Z,1003.52
2023-01-12T10:17:45.956Z,1003.49
2023-01-12T10:18:35.579Z,1003.46
2023-01-12T10:19:34.542Z,1003.48
2023-01-12T10:20:34.528Z,1003.45
2023-01-12T10:21:34.544Z,1003.33
2023-01-12T10:22:34.509Z,1003.39
2023-01-12T10:23:34.550Z,1003.45
2023-01-12T10:24:34.493Z,1003.38
2023-01-12T10:25:34.480Z,1003.35
2023-01-12T10:26:34.484Z,1003.43
2023-01-12T10:27:34.446Z,1003.48
2023-01-12T10:28:34.441Z,1003.40
2023-01-12T10:29:34.433Z,1003.34
2023-01-12T10:30:34.442Z,1003.44
2023-01-12T10:31:34.528Z,1003.31
2023-01-12T10:32:41.644Z,1003.37
2023-01-12T10:33:35.388Z,1003.38
2023-01-12T10:34:34.382Z,1003.28
2023-01-12T10:35:34.369Z,1003.31
2023-01-12T10:36:34.376Z,1003.26
2023-01-12T10:37:34.347Z,1003.31
2023-01-12T10:38:34.339Z,1003.30
2023-01-12T10:39:34.354Z,1003.24
2023-01-12T10:40:34.332Z,1003.37
2023-01-12T10:41:34.307Z,1003.30
2023-01-12T10:42:34.315Z,1003.24
2023-01-12T10:43:34.319Z,1003.26
2023-01-12T10:44:34.296Z,1003.26
2023-01-12T10:45:34.290Z,1003.15
2023-01-12T10:46:34.277Z,1003.03
2023-01-12T10:47:34.236Z,1002.96
2023-01-12T10:48:34.228Z,1003.10
2023-01-12T10:49:34.209Z,1002.99
2023-01-12T10:50:34.204Z,1002.99
2023-01-12T10:51:34.213Z,1003.05
2023-01-12T10:52:34.186Z,1003.00
2023-01-12T10:53:34.169Z,1003.11
2023-01-12T10:54:34.169Z,1003.06
2023-01-12T10:55:34.199Z,1003.07
2023-01-12T10:56:34.173Z,1002.94
2023-01-12T10:57:34.126Z,1003.02
2023-01-12T10:58:34.120Z,1003.03
2023-01-12T10:59:34.117Z,1003.05
2023-01-12T11:00:34.096Z,1002.94
2023-01-12T11:01:34.187Z,1002.84
2023-01-12T11:02:34.076Z,1002.85
2023-01-12T11:03:34.075Z,1002.88
2023-01-12T11:04:34.053Z,1002.78
2023-01-12T11:05:34.075Z,1002.84
2023-01-12T11:06:34.027Z,1002.70
2023-01-12T11:07:34.043Z,1002.76
2023-01-12T11:08:34.020Z,1002.80
2023-01-12T11:09:34.017Z,1002.82
2023-01-12T11:10:33.992Z,1002.77
2023-01-12T11:11:33.997Z,1002.79
2023-01-12T11:12:33.986Z,1002.69
2023-01-12T11:13:33.954Z,1002.64
2023-01-12T11:14:33.942Z,1002.64
2023-01-12T11:15:33.954Z,1002.67
2023-01-12T11:16:33.995Z,1002.63
2023-01-12T11:17:33.934Z,1002.66
2023-01-12T11:18:33.900Z,1002.58
2023-01-12T11:19:33.886Z,1002.54
2023-01-12T11:20:33.882Z,1002.47
2023-01-12T11:21:33.876Z,1002.55
2023-01-12T11:22:33.886Z,1002.51
2023-01-12T11:23:33.878Z,1002.48
2023-01-12T11:24:33.841Z,1002.48
2023-01-12T11:25:33.829Z,1002.61
2023-01-12T11:26:33.821Z,1002.60
2023-01-12T11:27:33.825Z,1002.54
2023-01-12T11:28:33.801Z,1002.44
2023-01-12T11:29:33.802Z,1002.46
2023-01-12T11:30:33.809Z,1002.38
2023-01-12T11:31:33.759Z,1002.38
2023-01-12T11:32:33.753Z,1002.29
2023-01-12T11:33:33.745Z,1002.30
2023-01-12T11:34:33.755Z,1002.20
2023-01-12T11:35:33.720Z,1002.25
2023-01-12T11:36:33.708Z,1002.26
2023-01-12T11:37:33.707Z,1002.28
2023-01-12T11:38:33.714Z,1002.30
2023-01-12T11:39:33.690Z,1002.22
2023-01-12T11:40:33.674Z,1002.30
2023-01-12T11:41:33.691Z,1002.33
2023-01-12T11:42:33.640Z,1002.41
2023-01-12T11:43:33.658Z,1002.30
2023-01-12T11:44:33.635Z,1002.28
2023-01-12T11:45:33.611Z,1002.35
2023-01-12T11:46:33.618Z,1002.42
2023-01-12T11:47:33.585Z,1002.36
2023-01-12T11:48:33.582Z,1002.35
2023-01-12T11:49:33.562Z,1002.27
2023-01-12T11:50:33.560Z,1002.29
2023-01-12T11:51:33.572Z,1002.25
2023-01-12T11:52:33.531Z,1002.31
2023-01-12T11:53:33.530Z,1002.33
2023-01-12T11:54:33.520Z,1002.29
2023-01-12T11:55:33.498Z,1002.22
2023-01-12T11:56:33.502Z,1002.19
2023-01-12T11:57:33.513Z,1002.23
2023-01-12T11:58:33.495Z,1002.27
2023-01-12T11:59:33.513Z,1002.21
2023-01-12T12:00:33.457Z,1002.19
2023-01-12T12:01:33.436Z,1002.20
2023-01-12T12:02:33.559Z,1002.21
2023-01-12T12:03:33.527Z,1002.28
2023-01-12T12:04:33.402Z,1002.24
2023-01-12T12:05:33.405Z,1002.14